Atlantic Chip Logo MyLaps Official Partner
Thursday, June 30, 2016
Registration Management Login

Results for Challenge St.Andrews
Challenge St. Andrews
July 4th, 2014

 
                           Challenge St. Andrews
          St. Andrews, NB July 6 2014  Weather: 26C Partly Cloudy
              Timing & Results by Atlantic Chip Event Timing
                                     
                           Challenge St. Andrews
 
                           Age Group Competition
--------------------------------------------------------------------------------      1900 Meter                        91 Km                            21 Km
                                                               Div                 ------SWIM------   ----T1----   ------BIKE-------    -----T2----  ------RUN--------
Place   bib  Time   Name                  City              Pr Co   Total  Div  Pro  Pl   Time   /100   Pl    Time   Pl Time     Km/Hr    Pl    Time   Pl Time     /Km
------  --- ------- --------------        ----------------- -- --   ----- ------ - -----------------  -----------  -----------------    -----------  -----------------
    1    15 3:53:03 Timothy O'Donnell     Cariff By The Sea CA US   1/25   M3034 Y    1   22:52  1:13    1    3:34    1 2:12:30 41.2      6    0:50    1 1:13:19  3:30 
    2     7 4:05:35 Cody Beals            Fergus            ON CA   1/3    M2024 Y    3   24:50  1:19    2    3:46    3 2:16:59 39.9      2    0:42    4 1:19:20  3:47 
    3    68 4:07:48 Cedric Boily          Moncton           NB CA   2/25   M3034      5   25:22  1:21   20    4:27    2 2:15:45 40.2     13    0:57    6 1:21:19  3:53 
    4    10 4:12:40 Nathan Buttrick       Boston            MA US   3/25   M3034 Y   33   29:31  1:34    3    3:49    4 2:19:41 39.1      7    0:51    3 1:18:49  3:46 
    5   104 4:13:24 Scott Cooper          Montreal          QC CA   1/13   M2529     28   29:17  1:33   25    4:38    6 2:19:51 39.0     17    1:01    2 1:18:40  3:45 
    6   207 4:15:55 Brian MacIlvain       Weston            MA US   4/25   M3034      8   26:50  1:25   17    4:20    9 2:22:39 38.3      1    0:40    7 1:21:28  3:53 
    7     1 4:18:35 Mirinda Carfrae       Cariff By The Sea CA US   1/13   F3034 Y    7   26:37  1:25    7    3:58   14 2:27:32 37.0      3    0:46    5 1:19:44  3:48 
    8    97 4:20:42 Sacha Cavelier        Robion            ZZ FR   2/13   M2529      9   27:10  1:26   21    4:29    7 2:20:48 38.8     44    1:23   17 1:26:54  4:09 
    9    41 4:20:54 Troy Allaby           Upham             NB CA   1/31   M4044     56   31:23  1:40    4    3:50    8 2:20:53 38.8     20    1:03   11 1:23:48  4:00 
   10     9 4:21:43 Jordan Bryden         Calgary           AB CA   3/13   M2529 Y    2   24:49  1:19    9    4:04   19 2:28:51 36.7      5    0:49    9 1:23:11  3:58 
   11   332 4:28:48 Cliff Worden-Rogers   Wentzells Lake    NS CA   5/25   M3034     27   29:16  1:33   28    4:46   15 2:28:16 36.8     33    1:14   15 1:25:18  4:04 
   12     2 4:28:54 Charisa Wernick       Carlsbad          CA US   1/13   F3539 Y   18   28:27  1:30   24    4:33   21 2:29:36 36.5     23    1:07   14 1:25:14  4:04 
   13    14 4:29:18 Zev Myerowitz Jr.     Cape Elizabeth    ME US   6/25   M3034 Y   13   28:15  1:30   16    4:19    5 2:19:44 39.1      9    0:54   40 1:36:09  4:35 
   14    17 4:29:30 Devin Wittig          Timmins           ON CA   2/3    M2024 Y   46   30:45  1:38   10    4:07   22 2:29:51 36.4     15    0:59   12 1:23:50  4:00 
   15    84 4:30:51 Kyle Burnell          South Berwick     ME US   4/13   M2529      6   25:37  1:21   15    4:14   23 2:30:08 36.4      4    0:48   28 1:30:06  4:18 
   16     3 4:31:01 Annie Gervais         St-Jean-Sur-Riche QC CA   2/13   F3539 Y   21   28:33  1:31    6    3:54   30 2:34:09 35.4     19    1:02   10 1:23:25  3:59 
   17   235 4:31:17 Chris Milburn         Sydney            NS CA   1/28   M4549     15   28:19  1:30   42    5:16   16 2:28:25 36.8     10    0:54   23 1:28:26  4:13 
   18   165 4:31:33 Rheal Jaillet         Dieppe            NB CA   1/20   M3539     44   30:32  1:37   19    4:24   11 2:26:46 37.2     26    1:10   27 1:28:43  4:14 
   19   114 4:32:42 Corey Deveaux         Sydney            NS CA   7/25   M3034     25   29:14  1:33   22    4:30   20 2:29:23 36.6     12    0:56   25 1:28:41  4:14 
   20   190 4:32:53 Denis Jp Leblanc      Cocagne           NB CA   2/31   M4044     48   30:58  1:38    5    3:51   13 2:27:04 37.1      8    0:52   29 1:30:10  4:18 
   21   142 4:33:37 Brock Gibbs           Beloeil           QC CA   2/28   M4549     87   33:15  1:45   44    5:18   18 2:28:44 36.7    125    2:05   13 1:24:16  4:01 
   22   112 4:34:32 Mike Davis            Fredericton       NB CA   3/28   M4549     47   30:48  1:38   12    4:09   10 2:23:51 38.0     24    1:07   35 1:34:38  4:31 
   23   322 4:35:21 Chris Watson          Fredericton       NB CA   5/13   M2529     24   29:12  1:33    8    4:01   31 2:34:22 35.4     32    1:14   16 1:26:35  4:08 
   24   313 4:35:47 Chris Tomkinson       Port Moody        BC CA   4/28   M4549     12   27:42  1:28   27    4:44   26 2:33:04 35.7     89    1:46   24 1:28:32  4:13 
   25    13 4:37:22 Allan MacKenzie       Sydney            NS CA   8/25   M3034 Y   32   29:27  1:33   23    4:31   28 2:33:33 35.6     29    1:12   26 1:28:42  4:14 
   26   191 4:38:23 Jean-Philippe Leclerc Montreal          QC CA   9/25   M3034     26   29:16  1:33   51    5:25   17 2:28:26 36.8     59    1:34   33 1:33:44  4:28 
   27    83 4:39:23 Andreas Burger        Mabou             NS CA  10/25   M3034     58   31:34  1:40   49    5:23   27 2:33:32 35.6     38    1:18   21 1:27:38  4:11 
   28    11 4:39:41 Elmar Heger           Calgary           AB CA  11/25   M3034 Y   11   27:26  1:27   18    4:23   12 2:27:03 37.1     37    1:18   53 1:39:34  4:45 
   29   259 4:43:49 Carolyn Pfalzgraf     Weston            MA US   1/8    F2529     50   31:04  1:39   36    5:04   43 2:38:55 34.4     21    1:04   22 1:27:45  4:11 
   30   245 4:45:48 Jamie Nickerson       Charlottetown     PE CA   5/28   M4549     31   29:25  1:33   29    4:52   36 2:36:44 34.8     72    1:39   32 1:33:10  4:27 
   31   198 4:47:08 Greg Lummis           Halifax           NS CA   3/31   M4044     89   33:29  1:46   34    5:02   32 2:36:11 35.0     40    1:20   30 1:31:07  4:21 
   32   138 4:48:27 Ian Fraser            Ottawa            ON CA   1/32   M5054     41   30:19  1:36   33    5:00   25 2:33:01 35.7     75    1:40   49 1:38:29  4:42 
   33   210 4:48:30 Mike MacKinnon        Miscouche         PE CA   4/31   M4044    111   35:02  1:51   76    6:00   60 2:42:53 33.5    126    2:08    8 1:22:29  3:56 
   34    82 4:48:37 Jeff Burbine          Halifax           NS CA   5/31   M4044     70   32:19  1:43   30    4:52   24 2:31:09 36.1     34    1:15   50 1:39:04  4:43 
   35   287 4:49:09 Trevor Seelert        Montreal          QC CA   6/13   M2529     79   32:54  1:44   14    4:11   35 2:36:42 34.8     52    1:31   34 1:33:54  4:29 
   36     5 4:49:38 Angela Quick          St. George        ON CA   2/8    F2529 Y    4   25:13  1:20   11    4:08   33 2:36:22 34.9     16    0:59   61 1:42:56  4:55 
   37   304 4:53:54 Randy Stanfield       Gilbertsville     PA US   6/31   M4044     35   29:39  1:34   43    5:17   48 2:39:33 34.2     35    1:16   48 1:38:12  4:41 
   38     4 4:54:01 Karen Smyers          Lincoln           MA US   1/14   F5054 Y   20   28:33  1:31   26    4:40   34 2:36:33 34.9     28    1:10   63 1:43:07  4:55 
   39   328 4:54:05 John Wilson           New Canaan        CT US   1/9    M5559     61   31:44  1:41   47    5:21   49 2:39:49 34.2     54    1:32   37 1:35:42  4:34 
   40    99 4:54:41 Scott Clark           Summerside        PE CA   2/32   M5054     59   31:40  1:40   79    6:03   76 2:46:21 32.8    193    3:04   20 1:27:36  4:11 
   41   266 4:54:58 Satish Punna          Moncton           NB CA   6/28   M4549     40   30:18  1:36   65    5:51   39 2:37:42 34.6     47    1:26   54 1:39:44  4:45 
   42   181 4:55:25 Steven Kikkert        Moncton           NB CA   7/31   M4044     55   31:20  1:39   13    4:11   40 2:37:46 34.6     30    1:12   56 1:40:57  4:49 
   43    64 4:55:34 Kevin Besner          Bedford           NS CA   8/31   M4044     85   33:12  1:45   35    5:04   42 2:38:36 34.4     27    1:10   45 1:37:35  4:39 
   44   194 4:56:33 Shawn Lewis           Beaver Bank       NS CA   9/31   M4044     69   32:15  1:42   56    5:32   74 2:45:29 33.0     43    1:23   31 1:31:56  4:23 
   45   281 4:57:03 John Rymes            Concord           NH US  10/31   M4044     38   30:15  1:36   64    5:50   52 2:41:20 33.8     95    1:49   46 1:37:50  4:40 
   46   410 4:57:56 Richard Lane          Caledonia         NS CA   7/28   M4549    108   34:42  1:50   95    6:18   41 2:37:47 34.6     66    1:37   44 1:37:34  4:39 
   47   196 4:58:25 Heather Low           Ottawa            ON CA   3/8    F2529     45   30:37  1:37   37    5:05   72 2:45:09 33.1     83    1:42   38 1:35:53  4:34 
   48   316 4:58:52 Bernard Vall_e        Nicolet           QC CA   2/9    M5559     93   33:42  1:47   48    5:21   44 2:39:01 34.3     39    1:18   52 1:39:31  4:45 
   49    78 4:59:27 Tim Brooks            Baddeck           NS CA  11/31   M4044     23   28:48  1:31  145    7:26   50 2:40:18 34.1     46    1:25   59 1:41:31  4:51 
   50   119 5:01:16 Shelley Doucet        Quispamsis        NB CA   2/13   F3034    106   34:35  1:50   57    5:32  104 2:52:22 31.7     42    1:23   19 1:27:26  4:10 
   51   279 5:01:34 Luis Rubio            Saint John        NB CA   3/32   M5054     76   32:48  1:44   54    5:28   56 2:42:01 33.7    120    2:03   51 1:39:15  4:44 
   52    85 5:02:48 Earle Burrows         Grand Bay Westfie NB CA   4/32   M5054    149   37:20  1:58   84    6:06   45 2:39:11 34.3    188    2:56   42 1:37:17  4:38 
   53   108 5:04:53 Clint Cummings        Halifax           NS CA  12/31   M4044    208   41:17  2:11   45    5:20   57 2:42:08 33.7     49    1:29   36 1:34:42  4:31 
   54   246 5:05:07 Shawn Noftall         New Glasgow       NS CA  13/31   M4044    191   39:21  2:05  118    6:44   47 2:39:17 34.3    107    1:55   47 1:37:53  4:40 
   55   275 5:05:50 Joey Romkey           Boutiliers Point  NS CA   7/13   M2529     63   31:49  1:41   50    5:24   62 2:43:24 33.4     57    1:34   67 1:43:41  4:57 
   56   301 5:06:23 Gina Spear-Burrows    Grand Bay / Westf NB CA   1/18   F4549    133   35:57  1:54   31    4:54   69 2:44:32 33.2     18    1:02   55 1:40:01  4:46 
   57   148 5:06:38 Joseph Gregan         Phoenix           AZ US  14/31   M4044    118   35:31  1:53   67    5:52   81 2:47:46 32.5     62    1:35   39 1:35:56  4:35 
   58   337 5:07:13 Stephen Zwicker       Dartmouth         NS CA   2/20   M3539    100   34:08  1:48   70    5:54   64 2:43:33 33.4     22    1:05   60 1:42:35  4:54 
   59   307 5:07:55 Katherine Sutton      Cape Elizabeth    ME US   4/8    F2529     30   29:24  1:33   55    5:29   55 2:41:39 33.8     31    1:13   92 1:50:12  5:15 
   60   174 5:09:23 Ben Kaye              Toronto           ON CA  12/25   M3034    101   34:14  1:49   71    5:54   59 2:42:43 33.6     55    1:32   71 1:45:02  5:01 
   61   298 5:10:04 Jamey Smith           Saint Andrews     NB CA   5/32   M5054    119   35:34  1:53  112    6:32   54 2:41:39 33.8     48    1:28   70 1:44:53  5:00 
   62   288 5:10:28 Elizabeth Seiffert    Hanwell           NB CA   2/14   F5054     22   28:33  1:31   66    5:51   65 2:43:39 33.4     63    1:36   94 1:50:51  5:17 
   63   147 5:11:02 Kara Grant            Mermaid           PE CA   3/13   F3539     94   33:48  1:47                                                 41 1:37:01  4:38 
   64   100 5:11:21 Dave Clark            Summerside        PE CA   6/32   M5054     65   31:58  1:41   62    5:44   37 2:37:23 34.7     58    1:34  112 1:54:45  5:28 
   65   176 5:12:44 Boon Kek              Saint John        NB CA   3/20   M3539    140   36:23  1:55   97    6:21   46 2:39:13 34.3     82    1:42   86 1:49:06  5:12 
   66   118 5:12:51 Greg Donde            London            ON CA  13/25   M3034     14   28:19  1:30   81    6:04   78 2:47:10 32.7     64    1:36   88 1:49:45  5:14 
   67    48 5:13:32 Fred Berube           Fredericton       NB CA   4/20   M3539     95   33:49  1:47  105    6:28   63 2:43:30 33.4     56    1:33   82 1:48:13  5:10 
   68   270 5:14:37 Steve Reeves          Freetown          PE CA   5/20   M3539    110   34:52  1:51  119    6:45  110 2:53:17 31.5    141    2:22   43 1:37:24  4:39 
   69    67 5:14:46 Sarah Boily           Chelsea           QC CA   4/13   F3539     10   27:17  1:27   41    5:15  117 2:54:37 31.3    112    2:00   73 1:45:38  5:02 
   70   319 5:14:58 Rodney Wadden         New Maryland      NB CA  15/31   M4044    107   34:38  1:50  122    6:51   79 2:47:31 32.6    142    2:22   66 1:43:38  4:57 
   71   224 5:15:23 Iain McDiarmid        Halifax           NS CA  14/25   M3034     92   33:37  1:47  120    6:47   58 2:42:20 33.6    129    2:09   93 1:50:33  5:16 
   72    65 5:16:41 Benjamin Bevans       Ammon             NB CA  15/25   M3034     90   33:30  1:46   32    4:57   90 2:49:44 32.2     14    0:57   79 1:47:35  5:08 
   73   325 5:17:29 Tim Wiebe             Bedell            NB CA   8/28   M4549     43   30:30  1:37  169    7:50  113 2:53:31 31.5    122    2:03   64 1:43:37  4:57 
   74   205 5:17:42 Matthew Mace          Arnold            MD US   7/32   M5054    112   35:06  1:51  115    6:39  103 2:52:03 31.7    187    2:55   58 1:41:00  4:49 
   75   420 5:17:42 Jennifer Faraone      Toronto           ON CA   1/15   F4044    226   42:28  2:15  219    9:11  125 2:56:10 31.0    179    2:46   18 1:27:10  4:10 
   76    45 5:18:00 Greg Arsenault        Stratford         PE CA   8/32   M5054    160   38:09  2:01  133    7:14   71 2:45:08 33.1    248    4:34   62 1:42:56  4:55 
   77   172 5:18:11 Ian Johnstone         Truro             NS CA   9/28   M4549     99   34:07  1:48   63    5:49   70 2:44:38 33.2    134    2:18   98 1:51:20  5:19 
   78   213 5:18:20 Tim MacNeil           Fall River        NS CA  10/28   M4549     62   31:45  1:41   88    6:11   93 2:50:54 31.9    235    4:04   72 1:45:27  5:02 
   79   274 5:18:48 Clare Robinson        London            ON CA   3/13   F3034     17   28:23  1:30   92    6:16   86 2:48:12 32.5     78    1:41  109 1:54:18  5:27 
   80   323 5:18:52 Gina Whipple          Weare             NH US   2/18   F4549    156   37:46  2:00  132    7:11   97 2:51:09 31.9     96    1:50   57 1:40:58  4:49 
   81   261 5:20:00 Brett Phillips        Lakeside          NS CA  16/31   M4044     54   31:15  1:39   39    5:13   84 2:48:08 32.5    106    1:54  107 1:53:31  5:25 
   82   268 5:20:01 Steve Quick           St George         ON CA   9/32   M5054    132   35:55  1:54   46    5:21   83 2:47:50 32.5     53    1:31   87 1:49:26  5:13 
   83    91 5:21:24 Stuart Cameron        Beaver Bank       NS CA  11/28   M4549    113   35:11  1:52  127    6:55  106 2:52:56 31.6    180    2:47   65 1:43:37  4:57 
   84   122 5:21:31 Jason Driscoll        Miramichi         NB CA  17/31   M4044    184   39:02  2:04  172    7:56   77 2:46:23 32.8    224    3:32   69 1:44:40  5:00 
   85   312 5:22:11 Ron Tibert            Lunenburg         NS CA  18/31   M4044    157   37:49  2:00  175    8:01   29 2:33:53 35.5     45    1:25  135 2:01:04  5:46 
   86   135 5:23:48 Mike Fougere          Dartmouth         NS CA  12/28   M4549    205   40:40  2:09  113    6:33   61 2:43:22 33.4    121    2:03   97 1:51:12  5:18 
   87   264 5:24:10 Tom Power             Hanwell           NB CA  13/28   M4549     91   33:33  1:46   38    5:05   66 2:44:04 33.3     60    1:35  127 1:59:55  5:43 
   88   220 5:24:11 Derek McAlpine        Yarmouth          NS CA   6/20   M3539     80   32:55  1:44   90    6:13   53 2:41:24 33.8     80    1:42  140 2:02:00  5:49 
   89    89 5:24:42 Joellen Cameron       Conway            MA US   3/14   F5054    117   35:23  1:52  126    6:54  100 2:51:37 31.8     88    1:45   85 1:49:05  5:12 
   90   334 5:24:43 Arrossamena Yannick   Saint Pierre And  ZZ PM  10/32   M5054     49   31:02  1:38  101    6:23  108 2:53:05 31.5    109    1:55  103 1:52:19  5:21 
   91    93 5:24:46 Brian Carmichael      Fredericton       NB CA  16/25   M3034    186   39:05  2:04  168    7:48   67 2:44:28 33.2     87    1:45  100 1:51:43  5:20 
   92   255 5:25:37 Peter Peacock         London            ON CA  11/32   M5054     29   29:21  1:33   98    6:22   95 2:51:02 31.9     92    1:48  120 1:57:06  5:35 
   93   214 5:25:56 Cameron Mahon         Georgetown        ON CA  12/32   M5054     16   28:22  1:30   89    6:12   85 2:48:12 32.5     81    1:42  138 2:01:31  5:48 
   94    44 5:26:11 Morgan Armstrong      Halifax           NS CA   8/13   M2529     84   33:12  1:45   40    5:15  136 2:58:29 30.6     11    0:54   84 1:48:24  5:10 
   95   233 5:26:22 Micheline McWhirter   Halifax           NS CA   3/18   F4549     67   32:08  1:42   77    6:01  105 2:52:54 31.6    147    2:26  104 1:52:56  5:23 
   96   238 5:27:47 Jeff Mitchell         Halifax           NS CA   9/13   M2529     51   31:08  1:39  110    6:30  137 2:58:50 30.5    212    3:15   81 1:48:06  5:09 
   97    55 5:28:13 Karen Beazley         Halifax           NS CA   1/14   F5559    135   36:01  1:54  184    8:12  132 2:57:57 30.7     61    1:35   68 1:44:29  4:59 
   98    46 5:29:19 Marc Aucoin           Tracadie-Sheila   NB CA  17/25   M3034     75   32:43  1:44   87    6:11  133 2:58:07 30.7    127    2:09   91 1:50:11  5:15 
   99   116 5:29:53 Scott Dickieson       New Glasgow       PE CA  13/32   M5054     83   33:05  1:45  108    6:30  101 2:51:40 31.8     93    1:49  118 1:56:52  5:34 
  100   193 5:30:57 Eric Lemay            Bouctouche        NB CA  19/31   M4044     74   32:40  1:44   91    6:13   87 2:48:25 32.4    117    2:02  139 2:01:39  5:48 
  101    80 5:31:20 Kim Buck              Moncton           NB CA   4/18   F4549     39   30:16  1:36  189    8:16   98 2:51:16 31.9    110    1:59  126 1:59:36  5:42 
  102    77 5:31:24 Chris Brinzey         Cohasset          MA US  14/28   M4549    151   37:29  1:59  106    6:28   92 2:50:44 32.0    102    1:52  113 1:54:52  5:29 
  103    94 5:31:25 Stephane Cartier      Montreal          QC CA  15/28   M4549    195   39:48  2:06  100    6:22   99 2:51:33 31.8     76    1:40  101 1:52:05  5:21 
  104   120 5:32:00 Mike Cormier          Charters Settleme NB CA  16/28   M4549    187   39:08  2:04  194    8:20  112 2:53:30 31.5    181    2:48   83 1:48:15  5:10 
  105    54 5:32:44 Hali Bauld            Halifax           NS CA   2/15   F4044    130   35:54  1:54  116    6:42   94 2:50:56 31.9     91    1:47  121 1:57:28  5:36 
  106   156 5:32:58 Penny Hart            Halifax           NS CA   5/18   F4549    104   34:30  1:49  125    6:54  120 2:55:09 31.2    111    1:59  111 1:54:28  5:28 
  107    60 5:33:27 Brenda Benson         Summerside        PE CA   3/15   F4044     66   32:00  1:41  128    6:58  154 3:03:06 29.8     70    1:39   89 1:49:46  5:14 
  108   184 5:33:40 Philippe Lahaie       Montreal          QC CA  18/25   M3034    161   38:10  2:01  134    7:15   96 2:51:03 31.9     65    1:36  116 1:55:38  5:31 
  109   327 5:33:47 Richard Williams      Boston            MA US  20/31   M4044    152   37:30  1:59  102    6:26  148 3:01:51 30.0     51    1:30   75 1:46:32  5:05 
  110    73 5:34:55 Tony Bowron           Terence Bay       NS CA  21/31   M4044    197   39:53  2:06  183    8:12   91 2:50:37 32.0    136    2:19  108 1:53:56  5:26 
  111    62 5:35:53 Julien Bertrand       Halifax           NS CA  19/25   M3034    109   34:47  1:50  158    7:40  127 2:56:27 30.9    165    2:38  110 1:54:23  5:27 
  112   258 5:36:10 Carolyn Peppin        Fredericton       NB CA   4/13   F3034     97   33:55  1:48   75    5:58  146 3:01:46 30.0    137    2:20  102 1:52:13  5:21 
  113   200 5:36:43 Jeannie MacDonald     Irishtown         NB CA   6/18   F4549    102   34:18  1:49   96    6:20  122 2:55:36 31.1     77    1:40  124 1:58:51  5:40 
  114   290 5:36:45 Paul Shore            Beaver Bank       NS CA  17/28   M4549    165   38:18  2:01  199    8:23   80 2:47:42 32.6    132    2:12  130 2:00:12  5:44 
  115   243 5:38:13 Stephanie Myles       Sydney            NS CA   5/13   F3034    167   38:20  2:02   74    5:57  166 3:06:30 29.3     84    1:44   74 1:45:44  5:03 
  116   143 5:39:17 Erik Gingles          Moncton           NB CA  18/28   M4549    127   35:47  1:53  197    8:21   38 2:37:40 34.6    201    3:07  185 2:14:24  6:24 
  117    87 5:39:34 Damian Byrne          Halifax           NS CA  14/32   M5054     57   31:32  1:40  121    6:50   88 2:49:08 32.3    105    1:54  175 2:10:13  6:12 
  118   321 5:39:49 Sue Watson            Rothesay          NB CA   2/14   F5559     88   33:20  1:46   58    5:35  109 2:53:07 31.5     90    1:47  157 2:06:03  6:01 
  119   211 5:40:06 Roxanne MacLaurin     Bedford           NS CA   4/14   F5054     98   34:01  1:48  193    8:19  115 2:54:04 31.4    150    2:28  136 2:01:16  5:47 
  120   203 5:40:55 Donald MacDonald      Sheet Harbour     NS CA   3/9    M5559    128   35:47  1:53  186    8:14  170 3:07:22 29.1    149    2:28   78 1:47:07  5:07 
  121   309 5:40:55 Aaron Thibault        Dartmouth         NS CA   7/20   M3539    143   36:38  1:56  123    6:52  149 3:02:12 30.0    100    1:51  105 1:53:24  5:24 
  122    98 5:41:43 Laura Cedergren       Gilbertsville     PA US   4/15   F4044     68   32:15  1:42   83    6:06  178 3:09:50 28.8    124    2:05   99 1:51:30  5:19 
  123   164 5:42:15 Corena Hughes         Stratford         PE CA   7/18   F4549     96   33:50  1:47  137    7:17  179 3:10:22 28.7    205    3:10   80 1:47:38  5:08 
  124   173 5:42:39 John Josey            Timberlea         NS CA   8/20   M3539    218   41:51  2:13   82    6:05  107 2:53:01 31.6    163    2:34  125 1:59:09  5:41 
  125   103 5:43:53 Kirsten Cooper        Georgetown        ON CA   5/14   F5054    206   40:45  2:09   73    5:55  155 3:03:32 29.7    173    2:41   96 1:51:02  5:18 
  126    56 5:44:15 Karen Bedard          Halifax           NS CA   5/15   F4044     72   32:23  1:43  162    7:41  147 3:01:49 30.0    151    2:29  128 1:59:55  5:43 
  127   241 5:46:34 Frank Mulcahy         Stratham          NH US  22/31   M4044    154   37:40  1:59  152    7:36  123 2:55:40 31.1     69    1:39  148 2:04:02  5:55 
  128    76 5:47:01 Webb Brightwell       Boston            MA US  23/31   M4044    134   35:57  1:54  103    6:26  129 2:57:07 30.8    152    2:29  153 2:05:03  5:58 
  129   110 5:47:16 Dave Dalgliesh        Leitches Creek    NS CA  15/32   M5054     77   32:51  1:44  124    6:52  143 3:00:50 30.2    123    2:04  150 2:04:41  5:57 
  130   271 5:47:53 John Reino            South Deerfield   MA US  16/32   M5054    204   40:37  2:09  192    8:18   89 2:49:28 32.2    200    3:06  159 2:06:25  6:02 
  131   163 5:48:58 Mary Houbolt          Plymouth          MA US   1/2    F6064    136   36:06  1:54  229    9:40   82 2:47:47 32.5    220    3:29  179 2:11:58  6:18 
  132   267 5:49:31 John Purdy            Hammonds Plains   NS CA   1/7    M6064     81   32:58  1:45  176    8:01  128 2:56:53 30.9    155    2:30  169 2:09:10  6:09 
  133   168 5:49:47 Tanya Johnson         Upper Kingsclear  NB CA   6/13   F3034    166   38:18  2:01   80    6:03  172 3:08:45 28.9     41    1:22  115 1:55:21  5:30 
  134   289 5:50:01 Ellen Sherren         Charlottetown     PE CA   6/15   F4044    103   34:25  1:49   72    5:55  167 3:06:38 29.3    115    2:01  134 2:01:03  5:46 
  135   212 5:50:22 Tracy MacNeil         Fall River        NS CA   7/15   F4044     34   29:32  1:34   53    5:28  135 2:58:28 30.6     86    1:44  189 2:15:11  6:27 
  136    61 5:51:12 Michel Bernier        Lac-Etchemin      QC CA  17/32   M5054    248   45:50  2:25  220    9:15  121 2:55:23 31.1    252    4:48  117 1:55:56  5:32 
  137   329 5:51:26 P T Withington        Plymouth          MA US   2/7    M6064    170   38:27  2:02  214    8:54   51 2:41:01 33.9    196    3:05  205 2:20:01  6:41 
  138   260 5:51:29 Dana Phillips         Lakeside          NS CA   8/15   F4044     53   31:11  1:39  114    6:33  152 3:02:47 29.9    156    2:31  165 2:08:29  6:08 
  139   286 5:51:32 Kevin Sears           Quispamsis        NB CA  18/32   M5054    121   35:36  1:53  230    9:41  126 2:56:17 31.0    236    4:06  156 2:05:55  6:00 
  140   305 5:52:44 Elle Steiner          Boston            MA US   9/15   F4044    179   38:42  2:03   69    5:53  203 3:19:54 27.3     79    1:41   76 1:46:36  5:05 
  141    50 5:53:03 Ivan Bachynsky        Quispamsis        NB CA  19/28   M4549     71   32:21  1:43  161    7:41  194 3:16:01 27.9    225    3:34  106 1:53:29  5:25 
  142   265 5:55:43 Tracey Price-Emerson  Rothesay          NB CA   5/13   F3539    116   35:21  1:52   52    5:27  181 3:11:06 28.6     74    1:39  143 2:02:12  5:50 
  143   284 5:55:49 Lindsay Scott         Toronto           ON CA   5/8    F2529    176   38:36  2:02   59    5:38  213 3:22:18 27.0    172    2:41   77 1:46:37  5:05 
  144    47 5:56:51 Jonathan Ayles        Rothesay          NB CA  20/25   M3034    137   36:10  1:55  205    8:30  134 2:58:09 30.6    246    4:30  171 2:09:34  6:11 
  145    53 5:57:04 Glenn Basso           New Waterford     NS CA  19/32   M5054    216   41:37  2:12  148    7:30  171 3:07:36 29.1     94    1:49  123 1:58:34  5:39 
  146   134 5:57:22 D'Arcy Flynn          North Wiltshire   PE CA  20/32   M5054    192   39:29  2:05  156    7:37  159 3:04:47 29.5    167    2:38  144 2:02:53  5:52 
  147   162 5:57:48 Marcie Holland        Saint John        NB CA   7/13   F3034    164   38:17  2:01   85    6:06  206 3:20:42 27.2     85    1:44   95 1:51:01  5:18 
  148   201 5:58:01 Allyson MacDonald     Fredericton       NB CA   8/18   F4549    203   40:34  2:09  129    7:05  195 3:17:20 27.7    210    3:11   90 1:49:53  5:14 
  149   166 5:58:08 Tj Jellinek           Orleans           ON CA  24/31   M4044    199   39:57  2:07  180    8:06  151 3:02:46 29.9    157    2:31  151 2:04:50  5:57 
  150   151 5:58:33 Doug Barrett          Rothesay          NB CA  20/28   M4549    120   35:35  1:53  130    7:05  138 2:58:51 30.5    148    2:26  186 2:14:37  6:25 
  151   178 5:58:39 Sean Kelley           Rothesay          NB CA  25/31   M4044    124   35:42  1:53  163    7:42  175 3:09:26 28.8    116    2:02  147 2:03:49  5:54 
  152   216 5:59:00 Linda Marquis         Morin-Heights     QC CA   6/14   F5054    227   43:02  2:16  241   10:20  118 2:54:41 31.3    215    3:21  161 2:07:37  6:05 
  153   123 5:59:58 Patrick Duffy         Lepreau           NB CA   9/20   M3539    201   40:09  2:07  185    8:13  145 3:01:39 30.1    218    3:25  160 2:06:35  6:02 
  154    51 6:00:06 Kurt Gumushel         Chamcook          NB CA  21/28   M4549    207   41:11  2:11   86    6:08  102 2:52:01 31.7     50    1:29  202 2:19:19  6:39 
  155   107 6:00:08 Todd Crowdis          Sydney            NS CA  21/32   M5054    242   44:40  2:22  154    7:37  157 3:04:20 29.6    169    2:40  132 2:00:53  5:46 
  156   159 6:00:50 Jennifer Hawrylak     Summerside        PE CA  10/15   F4044     19   28:29  1:30  159    7:40  183 3:11:57 28.4    139    2:20  176 2:10:26  6:13 
  157   331 6:00:54 Jason Wood            London            ON CA  21/25   M3034     36   30:04  1:35   60    5:44  140 3:00:38 30.2     97    1:51  207 2:22:39  6:48 
  158   317 6:01:43 Johan Van Limbergen   Halifax           NS CA  10/20   M3539    245   45:28  2:24  246   10:30   68 2:44:29 33.2    242    4:23  194 2:16:54  6:32 
  159   226 6:01:48 Seamus McDonough      Saint John        NB CA  10/13   M2529    163   38:17  2:01  167    7:47  131 2:57:44 30.7    239    4:16  183 2:13:46  6:23 
  160   300 6:02:02 Sarah Snow            Lawrencetown      NS CA   6/13   F3539    142   36:37  1:56  160    7:41  185 3:12:53 28.3    101    1:52  145 2:03:01  5:52 
  161   101 6:02:10 Paul Cochrane         Dieppe            NB CA  11/20   M3539    162   38:15  2:01  179    8:06  114 2:53:59 31.4    133    2:16  203 2:19:37  6:39 
  162   315 6:02:15 Stephen Vaillancourt  Hudson            MA US  26/31   M4044    174   38:34  2:02  107    6:29  177 3:09:43 28.8    140    2:21  154 2:05:11  5:58 
  163   257 6:02:50 Sarah Penney          Sydney            NS CA   8/13   F3034     42   30:24  1:36  138    7:18  189 3:13:43 28.2    211    3:15  163 2:08:11  6:07 
  164   177 6:02:56 Susan Kelley          Burlington        VT US   9/18   F4549    230   43:40  2:18  232    9:47  165 3:06:29 29.3    198    3:06  129 1:59:57  5:43 
  165   240 6:03:02 Mike Morrison         Sydney Forks      NS CA  12/20   M3539     82   33:05  1:45  117    6:42  158 3:04:40 29.6     73    1:39  195 2:16:58  6:32 
  166   306 6:03:20 Karen Sullivan        Timberlea         NS CA  11/15   F4044    131   35:55  1:54  144    7:26  200 3:18:48 27.5    182    2:49  122 1:58:25  5:39 
  167   272 6:03:35 Laura Richardson      Ottawa            ON CA   7/13   F3539    224   42:13  2:14  191    8:17  186 3:12:55 28.3    213    3:18  119 1:56:55  5:35 
  168   106 6:03:48 Cole Crouse           Middle Sackville  NS CA  11/13   M2529    231   43:42  2:18  141    7:24  124 2:56:02 31.0    232    3:49  181 2:12:53  6:20 
  169   234 6:03:53 Marc Melanson         Boudreau-Ouest    NB CA  22/32   M5054    181   38:47  2:03  157    7:40  169 3:07:10 29.2    108    1:55  164 2:08:23  6:07 
  170   133 6:04:51 Jaime Flores Quero    North Andover     MA US  13/20   M3539    144   36:51  1:57  155    7:37  161 3:05:12 29.5    216    3:24  178 2:11:49  6:17 
  171   206 6:05:41 Greg MacFarlane       Nackawic          NB CA  23/32   M5054    105   34:33  1:50  181    8:08  150 3:02:42 29.9    166    2:38  197 2:17:42  6:34 
  172    86 6:06:19 Jacob Button          Moncton           NB CA   3/3    M2024    159   38:08  2:01  243   10:24  160 3:05:09 29.5    103    1:53  177 2:10:46  6:14 
  173   171 6:06:25 Arnie Johnston        Kinkora           PE CA  22/28   M4549    177   38:37  2:02  212    8:51  139 2:59:14 30.5    190    3:02  193 2:16:43  6:31 
  174   149 6:06:45 Brigitte Guay         Nicolet           QC CA   3/14   F5559    129   35:51  1:54  190    8:16  191 3:15:04 28.0     98    1:51  155 2:05:45  6:00 
  175   294 6:07:18 Joey Slobodian        Stittsville       ON CA  24/32   M5054    125   35:42  1:53  223    9:23  188 3:13:13 28.3    254    4:55  149 2:04:06  5:55 
  176   310 6:08:17 Dylan Thomas          Portland          ME US  22/25   M3034     86   33:12  1:45  104    6:27  111 2:53:29 31.5     68    1:39  227 2:33:33  7:19 
  177   330 6:08:19 Shelley Wood          Saint John        NB CA   8/13   F3539    239   44:22  2:21  231    9:44  168 3:07:01 29.2    144    2:24  152 2:04:50  5:57 
  178   137 6:09:01 Joanne Fraser         Beaver Bank       NS CA  12/15   F4044    178   38:39  2:03  235    9:50  192 3:15:15 28.0    207    3:11  142 2:02:08  5:49 
  179   223 6:09:11 Michelle McCullough   Keswick Ridge     NB CA   9/13   F3539    222   42:08  2:13  182    8:09  173 3:08:52 28.9    131    2:10  162 2:07:55  6:06 
  180   111 6:10:22 George Daniel         Quispamsis        NB CA   4/9    M5559    150   37:26  1:59  142    7:25  208 3:21:05 27.2    189    2:59  137 2:01:28  5:48 
  181   140 6:10:39 Marie-Sophie Gauthier Rimouski          QC CA  10/18   F4549    214   41:33  2:12  146    7:28  197 3:17:59 27.6    177    2:45  133 2:00:57  5:46 
  182    58 6:11:00 Kyle Bennett          Quispamsis        NB CA  27/31   M4044    223   42:12  2:14  136    7:17  180 3:10:28 28.7    162    2:34  166 2:08:32  6:08 
  183   167 6:11:33 George Jessen         Sydney            NS CA   5/9    M5559    190   39:20  2:05  217    9:09  163 3:05:14 29.5    174    2:42  188 2:15:11  6:27 
  184   291 6:11:46 Gary Simmonds         Morell            PE CA   6/9    M5559    215   41:36  2:12  225    9:25  174 3:08:56 28.9    184    2:50  168 2:09:00  6:09 
  185   231 6:11:55 Sam McPherson         Eliot             ME US   1/1    M0119    146   37:07  1:58  196    8:20  210 3:21:11 27.1    206    3:10  141 2:02:08  5:49 
  186   247 6:13:02 Katelyn Norton        London            ON CA   6/8    F2529     52   31:09  1:39   61    5:44  207 3:20:54 27.2    118    2:02  182 2:13:15  6:21 
  187   232 6:13:03 Marlene McVicar       Fredericton       NB CA   4/14   F5559    211   41:24  2:11   94    6:18  187 3:13:13 28.3    113    2:00  174 2:10:09  6:12 
  188   293 6:13:51 Jonathan Simpson      Buderim           ZZ AU  23/28   M4549    202   40:28  2:08  188    8:15  130 2:57:36 30.7    195    3:05  212 2:24:29  6:53 
  189   197 6:14:10 Philip Lowery         Surrey            BC CA  25/32   M5054    182   38:52  2:03  242   10:22  184 3:12:44 28.3    164    2:37  172 2:09:37  6:11 
  190   109 6:14:38 David Curran          Edmonton          AB CA  28/31   M4044    147   37:08  1:58  247   10:31  156 3:04:15 29.6    221    3:29  201 2:19:17  6:38 
  191   121 6:15:33 Zane Dreja            Oakville          ON CA   3/7    M6064    145   37:00  1:57  226    9:25  142 3:00:48 30.2     25    1:09  216 2:27:13  7:01 
  192    70 6:16:10 Nathalie Boivin       Bathurst          NB CA   7/14   F5054    115   35:19  1:52  140    7:22  212 3:21:43 27.1    153    2:30  170 2:09:19  6:10 
  193   308 6:16:30 Bob Swift             Henderson         NV US   4/7    M6064     37   30:14  1:36  131    7:06  153 3:02:59 29.8    250    4:46  222 2:31:27  7:13 
  194   219 6:16:37 Shannon Matheson      Halifax           NS CA   7/8    F2529    171   38:28  2:02  215    8:58  202 3:19:50 27.3    194    3:04  158 2:06:19  6:01 
  195   144 6:16:58 Pierre Gingras        Saint-Jean Des Pi QC CA   5/7    M6064    213   41:32  2:12  173    8:00  144 3:01:15 30.1    146    2:25  211 2:23:49  6:51 
  196   217 6:18:11 Yvonne Martin         St. Mary's        NL CA   5/14   F5559    232   43:43  2:19  111    6:31  216 3:23:09 26.9     36    1:17  146 2:03:33  5:53 
  197   158 6:18:13 Christopher Hawkes    Moncton           NB CA  24/28   M4549    122   35:38  1:53  171    7:53  141 3:00:39 30.2    128    2:09  223 2:31:57  7:15 
  198   277 6:19:07 Gordon Ross           Quispamsis        NB CA  14/20   M3539    123   35:39  1:53  153    7:36  211 3:21:22 27.1    130    2:09  180 2:12:22  6:19 
  199   202 6:19:31 Christine MacDonald   Sydney            NS CA  11/18   F4549    175   38:36  2:02  200    8:26  201 3:19:40 27.3    199    3:06  173 2:09:47  6:11 
  200   218 6:20:39 Chris Martin          Quispamsis        NB CA  15/20   M3539    193   39:35  2:05   93    6:16  162 3:05:13 29.5     67    1:38  218 2:27:58  7:03 
  201   124 6:21:43 Pascal Dugas          Dieppe            NB CA  16/20   M3539    185   39:04  2:04  234    9:48  119 2:55:01 31.2    238    4:10  228 2:33:42  7:20 
  202   335 6:23:21 Valerie Zaphiratos    Montreal          QC CA   9/13   F3034    114   35:18  1:52  147    7:29  182 3:11:46 28.5    160    2:33  213 2:26:17  6:58 
  203    92 6:24:27 Karen Campbell        Sydney            NS CA  13/15   F4044    155   37:44  2:00  178    8:03  209 3:21:08 27.1     99    1:51  191 2:15:43  6:28 
  204   244 6:25:27 Jody Nickerson        Halifax           NS CA  17/20   M3539    172   38:30  2:02   78    6:01  164 3:05:54 29.4    230    3:46  221 2:31:18  7:13 
  205   314 6:25:29 Yves Tremblay         Morin-Heights     QC CA  26/32   M5054    249   45:55  2:25  227    9:26  198 3:18:05 27.6    204    3:09  167 2:08:56  6:09 
  206   320 6:27:47 James Walker          Saint John        NB CA  25/28   M4549    261   50:07  2:39  244   10:26  233 3:28:40 26.2    226    3:36  114 1:54:59  5:29 
  207   296 6:28:47 Patrick Small Legs-Na Waverley          NS CA  27/32   M5054    168   38:25  2:02  139    7:22   75 2:45:36 33.0    145    2:24  248 2:55:02  8:21 
  208   253 6:31:24 Tanya Owens           Moncton           NB CA  10/13   F3539    237   44:12  2:20  221    9:17  204 3:20:20 27.3    178    2:45  187 2:14:51  6:26 
  209    57 6:31:51 Treena Bellamy        Stratford         PE CA  12/18   F4549    253   46:51  2:28  222    9:19  193 3:15:45 27.9    247    4:32  190 2:15:25  6:27 
  210   128 6:31:53 Patricia Ellis        Charlottetown     PE CA   6/14   F5559    260   49:28  2:37  211    8:49  230 3:28:27 26.2    240    4:22  131 2:00:48  5:46 
  211   185 6:33:26 Denise Landry Nadeau  Edmundston        NB CA   8/14   F5054    212   41:24  2:11  204    8:29  220 3:23:48 26.8    209    3:11  192 2:16:35  6:31 
  212   146 6:35:27 Jarret Gosbee         Sydney            NS CA  12/13   M2529    169   38:25  2:02  166    7:44  221 3:24:23 26.7     71    1:39  208 2:23:18  6:50 
  213   187 6:36:22 Scott Lawson          Hfx               NS CA  28/32   M5054    180   38:43  2:03  228    9:37  116 2:54:19 31.3    138    2:20  245 2:51:23  8:10 
  214    63 6:37:10 Dolores Berube        Charlo            NB CA   9/14   F5054    139   36:22  1:55  239   10:05  226 3:27:01 26.4    234    4:03  204 2:19:43  6:40 
  215   215 6:38:22 Keith Marion          Pincourt          QC CA  29/31   M4044     78   32:54  1:44  170    7:52  223 3:26:00 26.5    253    4:51  214 2:26:48  7:00 
  216   115 6:38:50 Patty Dexter          Summerside        PE CA  10/14   F5054    220   41:55  2:13  202    8:28  234 3:31:14 25.8    217    3:24  184 2:13:51  6:23 
  217   251 6:42:28 Brigitta Ouellette    Moncton           NB CA  13/18   F4549    225   42:17  2:14  208    8:40  190 3:14:56 28.0    245    4:26  224 2:32:11  7:15 
  218   113 6:45:20 Becky Davison         Dartmouth         NS CA  11/13   F3539    189   39:10  2:04  151    7:34  245 3:38:02 25.0    114    2:01  200 2:18:35  6:36 
  219   263 6:45:50 William Place         Wellington        NS CA   6/7    M6064    194   39:40  2:06  224    9:25  217 3:23:16 26.9    256    5:12  219 2:28:19  7:04 
  220   150 6:48:16 Jean-Bernard Guignard Hanwell           NB CA  29/32   M5054    258   48:54  2:35  206    8:35  225 3:26:42 26.4    202    3:07  206 2:21:00  6:43 
  221    43 6:49:38 Craig Arbeau          Quispamsis        NB CA  18/20   M3539    267   53:52  2:51  165    7:44  196 3:17:33 27.6    185    2:50  217 2:27:41  7:02 
  222    81 6:49:57 Diane Buhay           Saint John        NB CA   7/14   F5559    262   52:46  2:47  263   12:03  218 3:23:18 26.9    228    3:38  198 2:18:14  6:35 
  223    66 6:50:14 Vallery Black         Whitby            ON CA  10/13   F3034     73   32:26  1:43  135    7:16  215 3:23:00 26.9    161    2:33  240 2:45:01  7:52 
  224   254 6:50:28 Carl Ozkaynak         Quispamsis        NB CA  19/20   M3539    250   45:57  2:26  143    7:25  199 3:18:44 27.5    143    2:22  231 2:36:01  7:26 
  225    88 6:51:30 Kelly Cain            Fredericton       NB CA  11/14   F5054    153   37:39  1:59  257   11:30  241 3:35:49 25.3    191    3:03  209 2:23:31  6:51 
  226    96 6:55:33 Mike Casey            Peterborough      ON CA  26/28   M4549    240   44:32  2:21  249   10:50  214 3:22:55 26.9    233    3:52  226 2:33:26  7:19 
  227   139 6:56:22 Janet Furey           Logy Bay          NL CA   8/14   F5559    263   52:59  2:48  109    6:30  243 3:37:32 25.1    119    2:03  196 2:17:21  6:33 
  228    90 6:57:47 Allana Cameron        Charlottetown     PE CA  14/15   F4044    236   44:08  2:20  198    8:23  228 3:27:52 26.3    249    4:45  225 2:32:42  7:17 
  229   295 7:00:44 Caryn Small Legs-Nagg Waverley          NS CA   9/14   F5559    221   42:03  2:13  213    8:54  254 3:48:48 23.9    170    2:40  199 2:18:22  6:36 
  230   154 7:00:52 Steve Hansen          Fredericton       NB CA  30/31   M4044    173   38:32  2:02  164    7:43  205 3:20:27 27.2    135    2:18  246 2:51:54  8:12 
  231   157 7:06:13 Jessica Hawkes        Moncton           NB CA   1/1    F2024    148   37:17  1:58  187    8:15  246 3:38:14 25.0    159    2:33  233 2:39:56  7:37 
  232   242 7:06:56 Donna Murdock         Whitby            ON CA  11/13   F3034    241   44:38  2:21  236    9:54  239 3:34:41 25.4    183    2:50  229 2:34:56  7:23 
  233    74 7:08:50 Rosemary Boyle        Quispamsis        NB CA  10/14   F5559    247   45:48  2:25  149    7:32  222 3:25:04 26.6    222    3:29  243 2:46:59  7:58 
  234     6 7:09:19 Kathryn MacKinnon     Salt Springs      NS CA  14/18   F4549    229   43:28  2:18  201    8:28  253 3:48:42 23.9    104    1:53  215 2:26:50  7:00 
  235    49 7:10:36 Paul Babin            Sydney            NS CA  30/32   M5054     64   31:51  1:41  210    8:41  176 3:09:31 28.8    197    3:06  259 3:17:29  9:25 
  236   170 7:11:18 Anne Johnson          Ellicott City     MD US  12/14   F5054    200   40:06  2:07  248   10:32  237 3:32:25 25.7    192    3:03  241 2:45:12  7:52 
  237   169 7:11:18 Caroline Johnson      Ellicott City     MD US   1/1    F0119    217   41:48  2:12  233    9:47  242 3:36:34 25.2    186    2:55  234 2:40:15  7:38 
  238   228 7:11:50 Derek McKenzie        Blue Mountain     ON CA  23/25   M3034    252   46:41  2:28  218    9:11  227 3:27:38 26.3    259    5:39  236 2:42:43  7:45 
  239   229 7:11:50 Sean McKenzie         Blue Mountain     ON CA  24/25   M3034    228   43:05  2:17  207    8:39  236 3:32:21 25.7    251    4:48  238 2:42:59  7:46 
  240   285 7:13:47 Beth Sears            Quispamsis        NB CA  13/14   F5054    266   53:47  2:50  252   11:00  247 3:41:26 24.7    231    3:48  210 2:23:48  6:51 
  241   227 7:14:21 Laura-Lea McKay       Upper Caverhill   NB CA  15/18   F4549    254   46:57  2:29  203    8:29  238 3:32:57 25.6    203    3:08  237 2:42:52  7:46 
  242    71 7:15:18 Debbie Bond           Edmonton          AB CA  16/18   F4549    196   39:51  2:06  209    8:41  224 3:26:29 26.4    241    4:22  249 2:55:56  8:23 
  243    79 7:22:14 Laila Brown           St. John's        NL CA  15/15   F4044    256   48:40  2:34  174    8:01  248 3:41:45 24.6    175    2:44  235 2:41:07  7:41 
  244   239 7:27:13 Carlton Moore         Dartmouth         NS CA   7/9    M5559    158   37:57  2:00  254   11:21  240 3:35:27 25.3    237    4:10  251 2:58:19  8:30 
  245   152 7:32:09 Andrea Hachey         Dartmouth         NS CA   8/8    F2529    183   38:54  2:03  195    8:20  249 3:44:36 24.3    158    2:32  250 2:57:49  8:29 
  246   192 7:32:21 Katie Leiras          Cambridge         MA US  12/13   F3034    198   39:56  2:07  150    7:33  235 3:31:17 25.8    219    3:27  256 3:10:10  9:04 
  247   145 7:33:09 Janice Goguen         Moncton           NB CA  11/14   F5559    268   59:43  3:09  255   11:21  244 3:37:59 25.0    258    5:38  232 2:38:30  7:33 
  248    59 7:36:04 Lorne Bennett         Paradise          NL CA  27/28   M4549    238   44:14  2:20  245   10:28  229 3:27:53 26.3    263    6:34  255 3:06:57  8:55 
  249   252 7:38:31 Serge Ouellette       Moncton           NB CA  31/32   M5054    210   41:24  2:11  262   11:57  232 3:28:35 26.2    214    3:21  258 3:13:17  9:13 
  250   102 7:38:54 Connie Coffin         Saint John        NB CA  17/18   F4549    265   53:27  2:49  216    9:01  262 4:03:33 22.4    171    2:41  220 2:30:14  7:10 
  251   199 7:41:34 Richard Lund          Fredericton       NB CA  13/13   M2529    219   41:53  2:13  177    8:03  252 3:48:36 23.9    243    4:23  252 2:58:40  8:31 
  252   225 7:43:39 Patrick McDonough     Saint John        NB CA   7/7    M6064    235   44:06  2:20  264   12:15  257 3:53:08 23.4    255    5:09  244 2:49:03  8:03 
  253   126 7:45:45 Julie Duplessis       Keswick Ridge     NB CA  12/13   F3539    259   49:00  2:35  261   11:40  256 3:52:35 23.5    265    7:48  239 2:44:44  7:51 
  254   292 7:49:59 Anne Simpson          Antigonish        NS CA  12/14   F5559    257   48:52  2:35  253   11:01  259 3:58:46 22.9    260    5:45  242 2:45:37  7:54 
  255   179 7:54:32 Debra Saltz           Arnold            MD US  18/18   F4549    243   45:22  2:24  238    9:58  260 4:02:03 22.6    208    3:11  247 2:54:00  8:18 
  256   237 7:56:30 Peter Milne           Saint John        NB CA   8/9    M5559    244   45:23  2:24  265   13:17  231 3:28:29 26.2    264    7:01  263 3:22:23  9:39 
  257   136 7:58:59 Sharon Fowler         Edmonton          AB CA   2/2    F6064    141   36:27  1:56  237    9:55  251 3:47:41 24.0    168    2:38  262 3:22:19  9:39 
  258   155 8:05:22 Carla Harris          Quispamsis        NB CA  13/14   F5559    234   44:05  2:20  240   10:07  261 4:02:27 22.5    257    5:16  253 3:03:29  8:45 
  259   276 8:06:57 Debbie Rosa           Enterprise        FL US  14/14   F5054    255   47:17  2:30  250   10:56  250 3:46:15 24.1    176    2:44  260 3:19:48  9:31 
  260    75 8:06:57 Andrea Boyle          Kinkora           PE CA  13/13   F3539    246   45:36  2:24  258   11:32  255 3:51:46 23.6    261    5:56  257 3:12:09  9:09 
  261   208 8:20:48 Lisa MacKenzie        Sydney            NS CA  13/13   F3034    233   43:49  2:19  256   11:29  263 4:16:13 21.3    223    3:30  254 3:05:49  8:51 
  262   230 8:21:19 Sean McKinley         Saint John        NB CA  20/20   M3539    251   46:06  2:26  260   11:35  258 3:58:07 22.9    227    3:38  261 3:21:56  9:37 
  263   189 8:27:08 Claire Leblanc        Moncton           NB CA  14/14   F5559    264   53:12  2:48  251   10:56  265 4:44:18 19.2    229    3:39  230 2:35:04  7:24 
  264   160 8:51:42 Brian Hawrylak        Summerside        PE CA  31/31   M4044    209   41:22  2:11  259   11:34  264 4:23:18 20.7    244    4:24  264 3:31:06 10:04 
  265   333         Terry Worthen         Dartmouth         NS CA  28/28   M4549     60   31:41  1:41   68    5:52   73 2:45:22 33.0    154    2:30                    
  266   188         Vincent Le Coadic     St-Pierre Et Miqu NL PM  32/32   M5054    138   36:17  1:55   99    6:22                                                     
  267   256         Tomas Peiser          Rothesay          NB CA   9/9    M5559    126   35:46  1:53  266   17:06  219 3:23:42 26.8    262    6:01                    
  268   501         Adam Douthwright      New Maryland      NB CA  25/25   M3034    188   39:08  2:04                                                                  

Results originally posted July 5th, 2014 at 11:23:07 pm
Results last revised July 7th, 2014 at 4:24:42 pm
Atlantic Chip Sport Timing
32 Forest Road
Dartmouth, NS
B3A 2M3
Email: Troy Musseau
Copyright © 2016 Atlantic Chip Sport Timing
ChampionChip® and MYLAPS® name and logo copyright © MYLAPS
Current server time is 05:34:20 AM Atlantic Time
Page generated in 0.012 seconds